Lyman, Washington
Current Conditions -  °F | °C
As of 7:35 PM on Friday 28 Nov 2014 (Local Time) from KBVS Reporting Station
Overcast Overcast  
Wind Chill: 34°   Ceiling: 3400
Heat Index: 39°   Visibility: 10mi
Dew Point: 37°   Wind: 7mph
Humidity: 93%   Direction: 160°SSE
Pressure: 29.5"   Gusts: NA
Location:  48.53°N, 122.06°W
Report Text: KBVS 290335Z AUTO 16006KT 10SM FEW008 BKN034 OVC055 04/03 A2950 RMK A01 P000
Loading
Personal Weather Stations






























Interactive Weather Map New forecast layout! Learn more

10-Day Weather Forecast

Advertisements
Track Severe Weather on mobile